createdAt,value
2023-02-14T00:08:57.620Z,21
2023-02-14T00:19:02.210Z,16
2023-02-14T00:29:08.949Z,19
2023-02-14T00:39:12.973Z,16
2023-02-14T00:49:17.606Z,18
2023-02-14T00:59:22.249Z,22
2023-02-14T01:09:27.325Z,22
2023-02-14T01:19:33.006Z,21
2023-02-14T01:29:39.783Z,20
2023-02-14T01:39:45.436Z,19
2023-02-14T01:49:51.564Z,19
2023-02-14T01:59:56.452Z,18
2023-02-14T02:10:02.780Z,20
2023-02-14T02:20:09.392Z,17
2023-02-14T02:30:16.083Z,14
2023-02-14T02:40:22.379Z,16
2023-02-14T02:50:28.616Z,15
2023-02-14T03:00:35.916Z,19
2023-02-14T03:10:40.415Z,20
2023-02-14T03:20:45.721Z,16
2023-02-14T03:30:50.852Z,18
2023-02-14T03:40:56.347Z,20
2023-02-14T03:51:02.300Z,18
2023-02-14T04:01:06.386Z,18
2023-02-14T04:11:12.425Z,17
2023-02-14T04:21:16.244Z,17
2023-02-14T04:31:20.182Z,17
2023-02-14T04:41:26.164Z,18
2023-02-14T04:51:32.523Z,18
2023-02-14T05:01:39.329Z,16
2023-02-14T05:11:44.028Z,16
2023-02-14T05:21:50.176Z,16
2023-02-14T05:31:56.836Z,17
2023-02-14T05:42:03.659Z,14
2023-02-14T05:52:09.206Z,18
2023-02-14T06:02:15.485Z,14
2023-02-14T06:12:20.814Z,21
2023-02-14T06:22:25.539Z,22
2023-02-14T06:32:33.541Z,25
2023-02-14T06:42:39.351Z,21
2023-02-14T06:52:45.241Z,15
2023-02-14T07:02:55.586Z,17
2023-02-14T07:12:57.808Z,13
2023-02-14T07:23:03.929Z,10
2023-02-14T07:33:08.110Z,9
2023-02-14T07:43:12.927Z,20
2023-02-14T07:53:19.800Z,19
2023-02-14T08:03:26.230Z,15
2023-02-14T08:13:33.921Z,21
2023-02-14T08:23:40.410Z,18
2023-02-14T08:33:46.098Z,12
2023-02-14T08:43:52.730Z,14
2023-02-14T08:53:58.022Z,14
2023-02-14T09:04:03.257Z,10
2023-02-14T09:14:08.684Z,11
2023-02-14T09:24:16.084Z,8
2023-02-14T09:34:21.122Z,7
2023-02-14T09:44:25.163Z,10
2023-02-14T09:54:31.598Z,8
2023-02-14T10:04:39.628Z,8
2023-02-14T10:14:44.165Z,9
2023-02-14T10:24:51.272Z,7
2023-02-14T10:34:59.110Z,7
2023-02-14T10:45:05.058Z,7
2023-02-14T10:55:10.463Z,8
2023-02-14T11:05:17.103Z,8
2023-02-14T11:15:23.894Z,6
2023-02-14T11:25:29.881Z,6
2023-02-14T11:35:36.677Z,10
2023-02-14T11:45:43.102Z,7
2023-02-14T11:55:47.955Z,12
2023-02-14T12:05:53.395Z,4
2023-02-14T12:15:59.690Z,5
2023-02-14T12:26:04.092Z,6
2023-02-14T12:36:10.938Z,7
2023-02-14T13:06:30.068Z,9
2023-02-14T13:16:39.195Z,7
2023-02-14T13:26:43.406Z,8
2023-02-14T13:36:49.684Z,7
2023-02-14T13:46:55.456Z,6
2023-02-14T13:57:00.680Z,10
2023-02-14T14:07:06.048Z,11
2023-02-14T14:17:12.264Z,10
2023-02-14T14:27:17.447Z,8
2023-02-14T14:37:23.409Z,11
2023-02-14T14:47:29.422Z,9
2023-02-14T14:57:34.608Z,10
2023-02-14T15:07:40.767Z,8
2023-02-14T15:17:44.159Z,9
2023-02-14T15:27:51.985Z,9
2023-02-14T15:37:56.923Z,12
2023-02-14T15:48:03.279Z,12
2023-02-14T15:58:08.620Z,12
2023-02-14T16:08:15.237Z,13
2023-02-14T16:18:22.115Z,24
2023-02-14T16:28:28.779Z,32
2023-02-14T16:38:34.650Z,34
2023-02-14T16:48:41.376Z,34
2023-02-14T16:58:47.296Z,28
2023-02-14T17:08:55.252Z,27
2023-02-14T17:19:00.631Z,31
2023-02-14T17:29:03.806Z,34
2023-02-14T17:39:09.356Z,33
2023-02-14T17:49:16.120Z,34
2023-02-14T17:59:20.320Z,36
2023-02-14T18:09:26.474Z,35
2023-02-14T18:19:33.416Z,23
2023-02-14T18:29:38.491Z,33
2023-02-14T18:39:43.256Z,16
2023-02-14T18:49:49.864Z,18
2023-02-14T18:59:56.332Z,18
2023-02-14T19:10:01.679Z,18
2023-02-14T19:20:06.373Z,20
2023-02-14T19:30:13.709Z,11
2023-02-14T19:40:19.478Z,12
2023-02-14T19:50:25.627Z,13
2023-02-14T20:00:30.480Z,19
2023-02-14T20:10:36.251Z,14
2023-02-14T20:20:43.426Z,13
2023-02-14T20:30:50.103Z,15
2023-02-14T20:40:53.835Z,10
2023-02-14T20:51:00.693Z,10
2023-02-14T21:01:07.875Z,9
2023-02-14T21:11:10.735Z,16
2023-02-14T21:21:15.813Z,16
2023-02-14T21:31:22.956Z,12
2023-02-14T21:41:27.160Z,11
2023-02-14T21:51:35.751Z,10
2023-02-14T22:01:40.245Z,11
2023-02-14T22:11:45.661Z,10
2023-02-14T22:21:50.312Z,10
2023-02-14T22:31:55.653Z,8
2023-02-14T22:41:59.406Z,10
2023-02-14T22:52:04.094Z,8
2023-02-14T23:02:09.169Z,9
2023-02-14T23:12:14.850Z,10
2023-02-14T23:22:21.550Z,9
2023-02-14T23:32:28.823Z,10
2023-02-14T23:42:34.178Z,9
2023-02-14T23:52:40.714Z,8
